sensor_id;sensor_type;location;lat;lon;timestamp;P1;durP1;ratioP1;P2;durP2;ratioP2
483;SDS011;228;48.922;12.198;2023-07-31T04:02:12;3.63;;;2.30;;
483;SDS011;228;48.922;12.198;2023-07-31T04:04:40;3.10;;;2.47;;
483;SDS011;228;48.922;12.198;2023-07-31T04:07:06;2.83;;;2.20;;
483;SDS011;228;48.922;12.198;2023-07-31T04:09:32;4.00;;;2.67;;
483;SDS011;228;48.922;12.198;2023-07-31T04:11:58;4.03;;;2.43;;
483;SDS011;228;48.922;12.198;2023-07-31T04:14:25;4.53;;;2.80;;
483;SDS011;228;48.922;12.198;2023-07-31T04:16:51;3.80;;;2.53;;
483;SDS011;228;48.922;12.198;2023-07-31T04:19:17;4.37;;;2.87;;
483;SDS011;228;48.922;12.198;2023-07-31T04:21:43;4.93;;;2.30;;
483;SDS011;228;48.922;12.198;2023-07-31T04:24:09;3.93;;;2.67;;
483;SDS011;228;48.922;12.198;2023-07-31T04:26:35;2.73;;;2.37;;
483;SDS011;228;48.922;12.198;2023-07-31T04:29:01;5.10;;;2.60;;
483;SDS011;228;48.922;12.198;2023-07-31T04:31:27;4.00;;;2.43;;
483;SDS011;228;48.922;12.198;2023-07-31T04:33:53;4.80;;;2.60;;
483;SDS011;228;48.922;12.198;2023-07-31T04:36:18;4.67;;;2.50;;
483;SDS011;228;48.922;12.198;2023-07-31T04:38:45;4.23;;;2.60;;
483;SDS011;228;48.922;12.198;2023-07-31T04:41:11;4.33;;;2.53;;
483;SDS011;228;48.922;12.198;2023-07-31T04:43:39;3.37;;;2.53;;
483;SDS011;228;48.922;12.198;2023-07-31T04:46:05;3.70;;;2.40;;
483;SDS011;228;48.922;12.198;2023-07-31T04:48:31;5.20;;;2.43;;
483;SDS011;228;48.922;12.198;2023-07-31T04:50:57;3.30;;;2.23;;
483;SDS011;228;48.922;12.198;2023-07-31T04:53:24;4.23;;;2.33;;
483;SDS011;228;48.922;12.198;2023-07-31T04:55:49;2.30;;;1.90;;
483;SDS011;228;48.922;12.198;2023-07-31T04:58:17;3.97;;;2.10;;
483;SDS011;228;48.922;12.198;2023-07-31T05:00:43;4.77;;;2.17;;
483;SDS011;228;48.922;12.198;2023-07-31T05:03:10;2.30;;;2.07;;
483;SDS011;228;48.922;12.198;2023-07-31T05:05:36;4.27;;;2.10;;
483;SDS011;228;48.922;12.198;2023-07-31T05:08:02;4.20;;;2.00;;
483;SDS011;228;48.922;12.198;2023-07-31T05:10:30;4.53;;;2.40;;
483;SDS011;228;48.922;12.198;2023-07-31T05:12:56;3.53;;;2.30;;
483;SDS011;228;48.922;12.198;2023-07-31T05:15:22;3.27;;;2.03;;
483;SDS011;228;48.922;12.198;2023-07-31T05:17:48;4.87;;;2.40;;
483;SDS011;228;48.922;12.198;2023-07-31T05:20:14;2.87;;;2.27;;
483;SDS011;228;48.922;12.198;2023-07-31T05:22:40;4.80;;;2.40;;
483;SDS011;228;48.922;12.198;2023-07-31T05:25:06;4.40;;;2.33;;
483;SDS011;228;48.922;12.198;2023-07-31T05:27:32;2.73;;;2.20;;
483;SDS011;228;48.922;12.198;2023-07-31T05:29:58;3.83;;;2.30;;
483;SDS011;228;48.922;12.198;2023-07-31T05:32:24;5.67;;;2.23;;
483;SDS011;228;48.922;12.198;2023-07-31T05:34:51;3.47;;;2.07;;
483;SDS011;228;48.922;12.198;2023-07-31T05:37:18;2.50;;;1.80;;
483;SDS011;228;48.922;12.198;2023-07-31T05:39:44;4.50;;;2.00;;
483;SDS011;228;48.922;12.198;2023-07-31T05:42:10;2.23;;;2.03;;
483;SDS011;228;48.922;12.198;2023-07-31T05:44:36;2.97;;;1.97;;
483;SDS011;228;48.922;12.198;2023-07-31T05:47:04;4.40;;;2.20;;
483;SDS011;228;48.922;12.198;2023-07-31T05:49:30;2.83;;;2.00;;
483;SDS011;228;48.922;12.198;2023-07-31T05:51:56;2.97;;;2.10;;
483;SDS011;228;48.922;12.198;2023-07-31T05:54:22;3.10;;;1.90;;
483;SDS011;228;48.922;12.198;2023-07-31T05:56:48;4.63;;;2.03;;
483;SDS011;228;48.922;12.198;2023-07-31T05:59:14;2.50;;;1.90;;
483;SDS011;228;48.922;12.198;2023-07-31T06:01:39;3.05;;;1.90;;
483;SDS011;228;48.922;12.198;2023-07-31T06:04:05;4.50;;;2.27;;
483;SDS011;228;48.922;12.198;2023-07-31T06:06:31;2.93;;;2.00;;
483;SDS011;228;48.922;12.198;2023-07-31T06:08:57;2.13;;;1.80;;
483;SDS011;228;48.922;12.198;2023-07-31T06:11:23;2.53;;;2.00;;
483;SDS011;228;48.922;12.198;2023-07-31T06:13:49;2.60;;;1.67;;
483;SDS011;228;48.922;12.198;2023-07-31T06:16:15;4.22;;;2.22;;
483;SDS011;228;48.922;12.198;2023-07-31T06:18:42;2.72;;;1.77;;
483;SDS011;228;48.922;12.198;2023-07-31T06:21:08;2.53;;;2.00;;
483;SDS011;228;48.922;12.198;2023-07-31T06:23:35;2.53;;;1.90;;
483;SDS011;228;48.922;12.198;2023-07-31T06:26:01;3.25;;;2.00;;
483;SDS011;228;48.922;12.198;2023-07-31T06:28:32;2.80;;;1.90;;
483;SDS011;228;48.922;12.198;2023-07-31T06:31:00;3.10;;;1.80;;
483;SDS011;228;48.922;12.198;2023-07-31T06:33:27;2.75;;;1.90;;
483;SDS011;228;48.922;12.198;2023-07-31T06:35:53;2.92;;;1.88;;
483;SDS011;228;48.922;12.198;2023-07-31T06:38:22;3.53;;;1.98;;
483;SDS011;228;48.922;12.198;2023-07-31T06:40:50;2.28;;;2.05;;
483;SDS011;228;48.922;12.198;2023-07-31T06:43:17;5.55;;;2.00;;
483;SDS011;228;48.922;12.198;2023-07-31T06:45:43;5.93;;;2.10;;
483;SDS011;228;48.922;12.198;2023-07-31T06:48:09;3.25;;;1.70;;
483;SDS011;228;48.922;12.198;2023-07-31T06:50:35;3.78;;;1.98;;
483;SDS011;228;48.922;12.198;2023-07-31T06:53:01;2.63;;;1.90;;
483;SDS011;228;48.922;12.198;2023-07-31T06:55:27;4.72;;;2.00;;
483;SDS011;228;48.922;12.198;2023-07-31T06:57:54;2.67;;;1.95;;
483;SDS011;228;48.922;12.198;2023-07-31T07:00:21;3.13;;;2.10;;
483;SDS011;228;48.922;12.198;2023-07-31T07:02:48;3.22;;;2.08;;
483;SDS011;228;48.922;12.198;2023-07-31T07:05:15;3.50;;;2.17;;
483;SDS011;228;48.922;12.198;2023-07-31T07:07:42;3.58;;;1.95;;
483;SDS011;228;48.922;12.198;2023-07-31T07:10:08;3.45;;;2.08;;
483;SDS011;228;48.922;12.198;2023-07-31T07:12:35;4.22;;;2.10;;
483;SDS011;228;48.922;12.198;2023-07-31T07:15:01;2.42;;;2.00;;
483;SDS011;228;48.922;12.198;2023-07-31T07:17:27;3.03;;;2.00;;
483;SDS011;228;48.922;12.198;2023-07-31T07:19:57;2.35;;;2.10;;
483;SDS011;228;48.922;12.198;2023-07-31T07:22:24;2.25;;;1.80;;
483;SDS011;228;48.922;12.198;2023-07-31T07:24:51;2.17;;;1.80;;
483;SDS011;228;48.922;12.198;2023-07-31T07:27:17;2.72;;;1.70;;
483;SDS011;228;48.922;12.198;2023-07-31T07:29:43;2.95;;;1.70;;
483;SDS011;228;48.922;12.198;2023-07-31T07:32:08;3.53;;;2.05;;
483;SDS011;228;48.922;12.198;2023-07-31T07:34:34;3.30;;;2.15;;
483;SDS011;228;48.922;12.198;2023-07-31T07:37:00;3.75;;;2.10;;
483;SDS011;228;48.922;12.198;2023-07-31T07:39:26;3.00;;;2.13;;
483;SDS011;228;48.922;12.198;2023-07-31T07:41:52;3.30;;;1.80;;
483;SDS011;228;48.922;12.198;2023-07-31T07:44:19;3.65;;;2.20;;
483;SDS011;228;48.922;12.198;2023-07-31T07:46:45;3.80;;;1.90;;
483;SDS011;228;48.922;12.198;2023-07-31T07:49:11;2.00;;;1.80;;
483;SDS011;228;48.922;12.198;2023-07-31T07:51:36;3.45;;;2.25;;
483;SDS011;228;48.922;12.198;2023-07-31T07:54:02;4.25;;;2.03;;
483;SDS011;228;48.922;12.198;2023-07-31T07:56:28;3.60;;;2.20;;
483;SDS011;228;48.922;12.198;2023-07-31T07:58:54;3.15;;;2.00;;
483;SDS011;228;48.922;12.198;2023-07-31T08:01:21;3.65;;;2.00;;
483;SDS011;228;48.922;12.198;2023-07-31T08:03:47;2.67;;;1.80;;
483;SDS011;228;48.922;12.198;2023-07-31T08:06:15;3.78;;;1.85;;
483;SDS011;228;48.922;12.198;2023-07-31T08:08:42;2.90;;;1.90;;
483;SDS011;228;48.922;12.198;2023-07-31T08:11:08;5.57;;;2.03;;
483;SDS011;228;48.922;12.198;2023-07-31T08:13:34;4.10;;;2.40;;
483;SDS011;228;48.922;12.198;2023-07-31T08:16:02;2.88;;;2.10;;
483;SDS011;228;48.922;12.198;2023-07-31T08:18:30;5.22;;;2.13;;
483;SDS011;228;48.922;12.198;2023-07-31T08:20:56;5.78;;;1.95;;
483;SDS011;228;48.922;12.198;2023-07-31T08:23:22;4.38;;;2.33;;
483;SDS011;228;48.922;12.198;2023-07-31T08:25:48;5.97;;;2.15;;
483;SDS011;228;48.922;12.198;2023-07-31T08:28:16;2.95;;;2.13;;
483;SDS011;228;48.922;12.198;2023-07-31T08:30:42;3.63;;;2.00;;
483;SDS011;228;48.922;12.198;2023-07-31T08:33:08;4.45;;;2.00;;
483;SDS011;228;48.922;12.198;2023-07-31T08:35:33;3.33;;;1.80;;
483;SDS011;228;48.922;12.198;2023-07-31T08:37:59;2.33;;;1.88;;
483;SDS011;228;48.922;12.198;2023-07-31T08:40:25;3.15;;;2.00;;
483;SDS011;228;48.922;12.198;2023-07-31T08:42:54;2.80;;;2.00;;
483;SDS011;228;48.922;12.198;2023-07-31T08:45:27;4.88;;;2.30;;
483;SDS011;228;48.922;12.198;2023-07-31T08:47:54;4.10;;;2.35;;
483;SDS011;228;48.922;12.198;2023-07-31T08:50:21;3.00;;;2.00;;
483;SDS011;228;48.922;12.198;2023-07-31T08:52:48;3.28;;;2.08;;
483;SDS011;228;48.922;12.198;2023-07-31T08:55:16;2.85;;;1.98;;
483;SDS011;228;48.922;12.198;2023-07-31T08:57:42;3.63;;;1.83;;
483;SDS011;228;48.922;12.198;2023-07-31T09:00:10;3.85;;;1.98;;
483;SDS011;228;48.922;12.198;2023-07-31T09:05:23;4.32;;;2.20;;
483;SDS011;228;48.922;12.198;2023-07-31T09:07:50;4.47;;;2.60;;
483;SDS011;228;48.922;12.198;2023-07-31T09:10:17;3.88;;;2.10;;
483;SDS011;228;48.922;12.198;2023-07-31T09:12:43;3.75;;;2.20;;
483;SDS011;228;48.922;12.198;2023-07-31T09:15:10;3.20;;;2.30;;
483;SDS011;228;48.922;12.198;2023-07-31T09:17:36;2.83;;;2.00;;
483;SDS011;228;48.922;12.198;2023-07-31T09:22:38;5.43;;;2.67;;
483;SDS011;228;48.922;12.198;2023-07-31T09:25:13;3.67;;;2.00;;
483;SDS011;228;48.922;12.198;2023-07-31T09:30:19;3.33;;;2.00;;
483;SDS011;228;48.922;12.198;2023-07-31T09:32:47;2.45;;;1.83;;
483;SDS011;228;48.922;12.198;2023-07-31T09:35:18;3.40;;;1.92;;
483;SDS011;228;48.922;12.198;2023-07-31T09:37:51;4.07;;;2.00;;
483;SDS011;228;48.922;12.198;2023-07-31T09:40:28;3.05;;;2.30;;
483;SDS011;228;48.922;12.198;2023-07-31T09:42:56;2.67;;;2.10;;
483;SDS011;228;48.922;12.198;2023-07-31T09:45:24;5.97;;;2.40;;
483;SDS011;228;48.922;12.198;2023-07-31T09:47:50;2.65;;;1.77;;
483;SDS011;228;48.922;12.198;2023-07-31T09:50:16;3.75;;;2.10;;
483;SDS011;228;48.922;12.198;2023-07-31T09:52:43;4.55;;;2.28;;
483;SDS011;228;48.922;12.198;2023-07-31T09:55:09;3.92;;;2.22;;
483;SDS011;228;48.922;12.198;2023-07-31T09:57:39;4.00;;;2.00;;
483;SDS011;228;48.922;12.198;2023-07-31T10:00:10;3.42;;;2.10;;
483;SDS011;228;48.922;12.198;2023-07-31T10:02:38;2.55;;;2.10;;
483;SDS011;228;48.922;12.198;2023-07-31T10:05:05;5.97;;;2.58;;
483;SDS011;228;48.922;12.198;2023-07-31T10:07:34;5.28;;;2.30;;
483;SDS011;228;48.922;12.198;2023-07-31T10:10:07;4.60;;;2.55;;
483;SDS011;228;48.922;12.198;2023-07-31T10:12:34;4.10;;;2.42;;
483;SDS011;228;48.922;12.198;2023-07-31T10:15:02;3.20;;;2.20;;
483;SDS011;228;48.922;12.198;2023-07-31T10:17:30;3.85;;;2.53;;
483;SDS011;228;48.922;12.198;2023-07-31T10:19:59;4.13;;;2.58;;
483;SDS011;228;48.922;12.198;2023-07-31T10:22:29;2.75;;;2.13;;
483;SDS011;228;48.922;12.198;2023-07-31T10:24:57;3.65;;;2.33;;
483;SDS011;228;48.922;12.198;2023-07-31T10:27:24;4.38;;;2.30;;
483;SDS011;228;48.922;12.198;2023-07-31T10:29:50;4.72;;;2.30;;
483;SDS011;228;48.922;12.198;2023-07-31T10:32:18;2.67;;;2.30;;
483;SDS011;228;48.922;12.198;2023-07-31T10:34:45;3.90;;;2.17;;
483;SDS011;228;48.922;12.198;2023-07-31T10:37:46;6.35;;;2.30;;
483;SDS011;228;48.922;12.198;2023-07-31T10:40:17;3.50;;;2.38;;
483;SDS011;228;48.922;12.198;2023-07-31T10:42:54;3.08;;;1.95;;
483;SDS011;228;48.922;12.198;2023-07-31T10:48:00;3.15;;;2.25;;
483;SDS011;228;48.922;12.198;2023-07-31T10:50:28;3.22;;;2.25;;
483;SDS011;228;48.922;12.198;2023-07-31T10:52:55;3.08;;;2.30;;
483;SDS011;228;48.922;12.198;2023-07-31T10:57:53;5.72;;;2.35;;
483;SDS011;228;48.922;12.198;2023-07-31T11:00:27;2.47;;;2.20;;
483;SDS011;228;48.922;12.198;2023-07-31T11:03:01;3.83;;;2.40;;
483;SDS011;228;48.922;12.198;2023-07-31T11:05:45;2.72;;;2.10;;
483;SDS011;228;48.922;12.198;2023-07-31T11:08:16;4.45;;;2.50;;
483;SDS011;228;48.922;12.198;2023-07-31T11:10:49;2.75;;;1.85;;
483;SDS011;228;48.922;12.198;2023-07-31T11:13:51;2.83;;;2.13;;
483;SDS011;228;48.922;12.198;2023-07-31T11:16:19;3.53;;;2.08;;
483;SDS011;228;48.922;12.198;2023-07-31T11:18:46;3.75;;;2.30;;
483;SDS011;228;48.922;12.198;2023-07-31T11:21:14;3.40;;;2.17;;
483;SDS011;228;48.922;12.198;2023-07-31T11:23:45;2.70;;;2.20;;
483;SDS011;228;48.922;12.198;2023-07-31T11:26:12;5.10;;;2.45;;
483;SDS011;228;48.922;12.198;2023-07-31T11:28:38;2.33;;;2.10;;
483;SDS011;228;48.922;12.198;2023-07-31T11:31:04;4.65;;;2.30;;
483;SDS011;228;48.922;12.198;2023-07-31T11:33:30;3.63;;;2.10;;
483;SDS011;228;48.922;12.198;2023-07-31T11:35:56;3.83;;;2.25;;
483;SDS011;228;48.922;12.198;2023-07-31T11:38:23;3.65;;;2.40;;
483;SDS011;228;48.922;12.198;2023-07-31T11:40:51;3.05;;;2.30;;
483;SDS011;228;48.922;12.198;2023-07-31T11:43:19;4.18;;;2.22;;
483;SDS011;228;48.922;12.198;2023-07-31T11:45:52;2.75;;;2.20;;
483;SDS011;228;48.922;12.198;2023-07-31T11:48:32;4.13;;;2.33;;
483;SDS011;228;48.922;12.198;2023-07-31T11:51:01;3.83;;;2.40;;
483;SDS011;228;48.922;12.198;2023-07-31T11:53:38;3.60;;;2.42;;
483;SDS011;228;48.922;12.198;2023-07-31T11:56:17;4.22;;;1.90;;
483;SDS011;228;48.922;12.198;2023-07-31T11:58:49;3.65;;;1.88;;
483;SDS011;228;48.922;12.198;2023-07-31T12:01:22;2.65;;;1.80;;
483;SDS011;228;48.922;12.198;2023-07-31T12:03:49;2.28;;;1.98;;
483;SDS011;228;48.922;12.198;2023-07-31T12:06:17;3.50;;;2.13;;
483;SDS011;228;48.922;12.198;2023-07-31T12:08:46;2.72;;;1.90;;
483;SDS011;228;48.922;12.198;2023-07-31T12:11:12;2.25;;;2.03;;
483;SDS011;228;48.922;12.198;2023-07-31T12:13:43;4.00;;;2.47;;
483;SDS011;228;48.922;12.198;2023-07-31T12:16:08;2.33;;;1.92;;
483;SDS011;228;48.922;12.198;2023-07-31T12:18:36;3.70;;;2.42;;
483;SDS011;228;48.922;12.198;2023-07-31T12:21:04;2.58;;;1.98;;
483;SDS011;228;48.922;12.198;2023-07-31T12:23:31;2.75;;;2.03;;
483;SDS011;228;48.922;12.198;2023-07-31T12:28:41;4.55;;;2.20;;
483;SDS011;228;48.922;12.198;2023-07-31T12:31:08;4.25;;;2.10;;
483;SDS011;228;48.922;12.198;2023-07-31T12:33:39;2.58;;;1.92;;
483;SDS011;228;48.922;12.198;2023-07-31T12:36:07;3.40;;;2.10;;
483;SDS011;228;48.922;12.198;2023-07-31T12:38:38;2.92;;;2.30;;
483;SDS011;228;48.922;12.198;2023-07-31T12:41:04;3.65;;;2.17;;
483;SDS011;228;48.922;12.198;2023-07-31T12:43:32;2.78;;;2.10;;
483;SDS011;228;48.922;12.198;2023-07-31T12:45:59;2.78;;;2.50;;
483;SDS011;228;48.922;12.198;2023-07-31T12:48:25;3.47;;;2.30;;
483;SDS011;228;48.922;12.198;2023-07-31T12:50:51;2.88;;;2.13;;
483;SDS011;228;48.922;12.198;2023-07-31T12:53:17;3.60;;;2.50;;
483;SDS011;228;48.922;12.198;2023-07-31T12:55:43;2.50;;;1.98;;
483;SDS011;228;48.922;12.198;2023-07-31T12:58:09;2.17;;;1.98;;
483;SDS011;228;48.922;12.198;2023-07-31T13:00:35;2.65;;;1.98;;
483;SDS011;228;48.922;12.198;2023-07-31T13:03:01;3.75;;;2.25;;
483;SDS011;228;48.922;12.198;2023-07-31T13:05:28;2.67;;;2.05;;
483;SDS011;228;48.922;12.198;2023-07-31T13:07:54;3.83;;;2.10;;
483;SDS011;228;48.922;12.198;2023-07-31T13:10:21;3.03;;;1.92;;
483;SDS011;228;48.922;12.198;2023-07-31T13:12:48;3.85;;;2.15;;
483;SDS011;228;48.922;12.198;2023-07-31T13:15:14;2.40;;;1.83;;
483;SDS011;228;48.922;12.198;2023-07-31T13:17:40;4.32;;;2.25;;
483;SDS011;228;48.922;12.198;2023-07-31T13:20:06;4.65;;;2.30;;
483;SDS011;228;48.922;12.198;2023-07-31T13:22:33;4.38;;;2.25;;
483;SDS011;228;48.922;12.198;2023-07-31T13:24:59;2.75;;;2.30;;
483;SDS011;228;48.922;12.198;2023-07-31T13:27:25;3.70;;;2.22;;
483;SDS011;228;48.922;12.198;2023-07-31T13:29:51;3.28;;;2.40;;
483;SDS011;228;48.922;12.198;2023-07-31T13:32:17;2.28;;;2.08;;
483;SDS011;228;48.922;12.198;2023-07-31T13:34:45;2.88;;;1.92;;
483;SDS011;228;48.922;12.198;2023-07-31T13:37:11;3.75;;;2.40;;
483;SDS011;228;48.922;12.198;2023-07-31T13:39:38;4.97;;;2.83;;
483;SDS011;228;48.922;12.198;2023-07-31T13:42:05;4.85;;;2.72;;
483;SDS011;228;48.922;12.198;2023-07-31T13:44:36;5.68;;;2.40;;
483;SDS011;228;48.922;12.198;2023-07-31T13:47:02;5.10;;;2.55;;
483;SDS011;228;48.922;12.198;2023-07-31T13:49:29;5.00;;;2.45;;
483;SDS011;228;48.922;12.198;2023-07-31T13:51:55;4.00;;;2.70;;
483;SDS011;228;48.922;12.198;2023-07-31T13:54:22;3.22;;;2.75;;
483;SDS011;228;48.922;12.198;2023-07-31T13:56:49;3.83;;;2.30;;
483;SDS011;228;48.922;12.198;2023-07-31T13:59:15;2.85;;;2.17;;
483;SDS011;228;48.922;12.198;2023-07-31T14:01:42;3.03;;;2.20;;
483;SDS011;228;48.922;12.198;2023-07-31T14:04:08;2.88;;;2.45;;
483;SDS011;228;48.922;12.198;2023-07-31T14:06:34;3.30;;;2.47;;
483;SDS011;228;48.922;12.198;2023-07-31T14:09:01;3.03;;;2.63;;
483;SDS011;228;48.922;12.198;2023-07-31T14:11:28;4.30;;;2.80;;
483;SDS011;228;48.922;12.198;2023-07-31T14:13:54;3.40;;;2.40;;
483;SDS011;228;48.922;12.198;2023-07-31T14:16:21;3.08;;;2.42;;
483;SDS011;228;48.922;12.198;2023-07-31T14:18:47;3.00;;;2.42;;
483;SDS011;228;48.922;12.198;2023-07-31T14:21:13;4.93;;;2.75;;
483;SDS011;228;48.922;12.198;2023-07-31T14:23:39;3.28;;;2.75;;
483;SDS011;228;48.922;12.198;2023-07-31T14:26:06;4.50;;;3.20;;
483;SDS011;228;48.922;12.198;2023-07-31T14:28:32;4.25;;;3.08;;
483;SDS011;228;48.922;12.198;2023-07-31T14:30:58;4.22;;;2.85;;
483;SDS011;228;48.922;12.198;2023-07-31T14:33:24;8.25;;;2.90;;
483;SDS011;228;48.922;12.198;2023-07-31T14:35:50;3.75;;;2.90;;
483;SDS011;228;48.922;12.198;2023-07-31T14:38:15;3.65;;;2.55;;
483;SDS011;228;48.922;12.198;2023-07-31T14:40:41;4.57;;;2.80;;
483;SDS011;228;48.922;12.198;2023-07-31T14:43:07;3.83;;;2.95;;
483;SDS011;228;48.922;12.198;2023-07-31T14:45:33;4.70;;;2.80;;
483;SDS011;228;48.922;12.198;2023-07-31T14:47:59;3.88;;;2.90;;
483;SDS011;228;48.922;12.198;2023-07-31T14:50:25;3.17;;;2.88;;
483;SDS011;228;48.922;12.198;2023-07-31T14:52:51;3.20;;;2.72;;
483;SDS011;228;48.922;12.198;2023-07-31T14:55:17;4.32;;;2.85;;
483;SDS011;228;48.922;12.198;2023-07-31T14:57:44;3.28;;;2.95;;
483;SDS011;228;48.922;12.198;2023-07-31T15:00:10;5.63;;;3.10;;
483;SDS011;228;48.922;12.198;2023-07-31T15:02:37;3.40;;;3.10;;
483;SDS011;228;48.922;12.198;2023-07-31T15:05:03;6.78;;;3.15;;
483;SDS011;228;48.922;12.198;2023-07-31T15:07:29;3.78;;;3.15;;
483;SDS011;228;48.922;12.198;2023-07-31T15:09:55;6.43;;;3.55;;
483;SDS011;228;48.922;12.198;2023-07-31T15:12:21;4.63;;;3.10;;
483;SDS011;228;48.922;12.198;2023-07-31T15:14:48;4.35;;;2.88;;
483;SDS011;228;48.922;12.198;2023-07-31T15:17:14;2.72;;;2.47;;
483;SDS011;228;48.922;12.198;2023-07-31T15:19:40;6.70;;;3.00;;
483;SDS011;228;48.922;12.198;2023-07-31T15:22:06;5.43;;;2.90;;
483;SDS011;228;48.922;12.198;2023-07-31T15:24:33;5.95;;;2.67;;
483;SDS011;228;48.922;12.198;2023-07-31T15:27:01;3.50;;;2.70;;
483;SDS011;228;48.922;12.198;2023-07-31T15:29:28;3.38;;;2.83;;
483;SDS011;228;48.922;12.198;2023-07-31T15:31:55;3.70;;;3.05;;
483;SDS011;228;48.922;12.198;2023-07-31T15:34:21;6.53;;;3.10;;
483;SDS011;228;48.922;12.198;2023-07-31T15:36:47;4.10;;;2.75;;
483;SDS011;228;48.922;12.198;2023-07-31T15:39:13;3.30;;;2.90;;
483;SDS011;228;48.922;12.198;2023-07-31T15:41:39;3.67;;;2.55;;
483;SDS011;228;48.922;12.198;2023-07-31T15:44:06;4.20;;;2.78;;
483;SDS011;228;48.922;12.198;2023-07-31T15:46:33;4.45;;;2.60;;
483;SDS011;228;48.922;12.198;2023-07-31T15:49:00;3.28;;;2.33;;
483;SDS011;228;48.922;12.198;2023-07-31T15:51:26;5.57;;;3.10;;
483;SDS011;228;48.922;12.198;2023-07-31T15:53:52;3.70;;;2.75;;
483;SDS011;228;48.922;12.198;2023-07-31T15:56:18;6.43;;;2.42;;
483;SDS011;228;48.922;12.198;2023-07-31T15:58:44;3.58;;;2.53;;
483;SDS011;228;48.922;12.198;2023-07-31T16:01:10;2.90;;;2.60;;
483;SDS011;228;48.922;12.198;2023-07-31T16:03:36;3.42;;;2.72;;
483;SDS011;228;48.922;12.198;2023-07-31T16:06:02;3.00;;;2.60;;
483;SDS011;228;48.922;12.198;2023-07-31T16:08:28;6.13;;;2.65;;
483;SDS011;228;48.922;12.198;2023-07-31T16:10:54;5.28;;;3.22;;
483;SDS011;228;48.922;12.198;2023-07-31T16:13:21;5.30;;;2.88;;
483;SDS011;228;48.922;12.198;2023-07-31T16:15:48;3.63;;;2.50;;
483;SDS011;228;48.922;12.198;2023-07-31T16:18:14;3.75;;;2.40;;
483;SDS011;228;48.922;12.198;2023-07-31T16:20:39;3.63;;;2.50;;
483;SDS011;228;48.922;12.198;2023-07-31T16:23:05;4.75;;;2.47;;
483;SDS011;228;48.922;12.198;2023-07-31T16:25:34;2.95;;;2.38;;
483;SDS011;228;48.922;12.198;2023-07-31T16:28:00;5.40;;;2.30;;
483;SDS011;228;48.922;12.198;2023-07-31T16:30:26;3.63;;;2.65;;
483;SDS011;228;48.922;12.198;2023-07-31T16:32:52;4.30;;;2.30;;
483;SDS011;228;48.922;12.198;2023-07-31T16:35:18;3.83;;;2.50;;
483;SDS011;228;48.922;12.198;2023-07-31T16:37:44;7.00;;;2.80;;
483;SDS011;228;48.922;12.198;2023-07-31T16:40:11;2.80;;;2.40;;
483;SDS011;228;48.922;12.198;2023-07-31T16:42:39;4.88;;;3.22;;
483;SDS011;228;48.922;12.198;2023-07-31T16:45:07;4.90;;;2.88;;
483;SDS011;228;48.922;12.198;2023-07-31T16:47:33;5.35;;;3.13;;
483;SDS011;228;48.922;12.198;2023-07-31T16:49:59;2.85;;;2.38;;
483;SDS011;228;48.922;12.198;2023-07-31T16:52:25;2.67;;;2.47;;
483;SDS011;228;48.922;12.198;2023-07-31T16:54:52;4.95;;;2.78;;
483;SDS011;228;48.922;12.198;2023-07-31T16:57:18;6.15;;;3.15;;
483;SDS011;228;48.922;12.198;2023-07-31T16:59:45;5.00;;;2.50;;
483;SDS011;228;48.922;12.198;2023-07-31T17:02:11;3.20;;;2.30;;
483;SDS011;228;48.922;12.198;2023-07-31T17:04:36;3.50;;;2.30;;
483;SDS011;228;48.922;12.198;2023-07-31T17:07:02;5.05;;;2.55;;
483;SDS011;228;48.922;12.198;2023-07-31T17:09:28;2.78;;;2.33;;
483;SDS011;228;48.922;12.198;2023-07-31T17:11:54;3.92;;;2.40;;
483;SDS011;228;48.922;12.198;2023-07-31T17:14:20;3.35;;;2.30;;
483;SDS011;228;48.922;12.198;2023-07-31T17:16:46;5.10;;;2.63;;
483;SDS011;228;48.922;12.198;2023-07-31T17:19:12;5.22;;;2.55;;
483;SDS011;228;48.922;12.198;2023-07-31T17:21:39;3.08;;;2.33;;
483;SDS011;228;48.922;12.198;2023-07-31T17:24:05;3.15;;;2.55;;
483;SDS011;228;48.922;12.198;2023-07-31T17:26:31;5.30;;;2.88;;
483;SDS011;228;48.922;12.198;2023-07-31T17:28:57;4.60;;;2.50;;
483;SDS011;228;48.922;12.198;2023-07-31T17:31:26;5.88;;;4.00;;
483;SDS011;228;48.922;12.198;2023-07-31T17:33:52;5.65;;;3.03;;
483;SDS011;228;48.922;12.198;2023-07-31T17:36:19;3.63;;;2.92;;
483;SDS011;228;48.922;12.198;2023-07-31T17:38:45;6.47;;;2.58;;
483;SDS011;228;48.922;12.198;2023-07-31T17:41:11;4.72;;;2.70;;
483;SDS011;228;48.922;12.198;2023-07-31T17:43:37;5.40;;;2.90;;
483;SDS011;228;48.922;12.198;2023-07-31T17:46:03;5.10;;;3.05;;
483;SDS011;228;48.922;12.198;2023-07-31T17:48:29;3.10;;;2.35;;
483;SDS011;228;48.922;12.198;2023-07-31T17:50:55;5.40;;;2.90;;
483;SDS011;228;48.922;12.198;2023-07-31T17:53:21;4.85;;;2.58;;
483;SDS011;228;48.922;12.198;2023-07-31T17:55:47;4.10;;;2.47;;
483;SDS011;228;48.922;12.198;2023-07-31T17:58:13;4.88;;;2.50;;
483;SDS011;228;48.922;12.198;2023-07-31T18:00:40;3.83;;;2.47;;
483;SDS011;228;48.922;12.198;2023-07-31T18:03:06;4.80;;;2.88;;
483;SDS011;228;48.922;12.198;2023-07-31T18:05:36;2.83;;;2.38;;
483;SDS011;228;48.922;12.198;2023-07-31T18:08:02;4.18;;;2.95;;
483;SDS011;228;48.922;12.198;2023-07-31T18:10:28;4.80;;;2.70;;
483;SDS011;228;48.922;12.198;2023-07-31T18:12:54;4.28;;;2.80;;
483;SDS011;228;48.922;12.198;2023-07-31T18:15:20;5.72;;;2.83;;
483;SDS011;228;48.922;12.198;2023-07-31T18:17:46;7.25;;;3.00;;
483;SDS011;228;48.922;12.198;2023-07-31T18:20:12;5.88;;;2.60;;
483;SDS011;228;48.922;12.198;2023-07-31T18:22:38;3.63;;;2.50;;
483;SDS011;228;48.922;12.198;2023-07-31T18:25:04;4.97;;;2.63;;
483;SDS011;228;48.922;12.198;2023-07-31T18:27:31;5.22;;;3.10;;
483;SDS011;228;48.922;12.198;2023-07-31T18:29:56;4.15;;;2.70;;
483;SDS011;228;48.922;12.198;2023-07-31T18:32:22;4.07;;;3.17;;
483;SDS011;228;48.922;12.198;2023-07-31T18:34:50;3.72;;;2.90;;
483;SDS011;228;48.922;12.198;2023-07-31T18:37:16;5.72;;;2.97;;
483;SDS011;228;48.922;12.198;2023-07-31T18:39:42;5.75;;;2.38;;
483;SDS011;228;48.922;12.198;2023-07-31T18:42:08;3.80;;;2.80;;
483;SDS011;228;48.922;12.198;2023-07-31T18:44:34;3.53;;;2.50;;
483;SDS011;228;48.922;12.198;2023-07-31T18:47:00;5.75;;;2.65;;
483;SDS011;228;48.922;12.198;2023-07-31T18:49:27;3.83;;;2.75;;
483;SDS011;228;48.922;12.198;2023-07-31T18:51:53;5.68;;;2.90;;
483;SDS011;228;48.922;12.198;2023-07-31T18:54:19;3.05;;;2.75;;
483;SDS011;228;48.922;12.198;2023-07-31T18:56:45;4.20;;;2.95;;
483;SDS011;228;48.922;12.198;2023-07-31T18:59:11;4.07;;;2.88;;
483;SDS011;228;48.922;12.198;2023-07-31T19:01:38;4.80;;;2.70;;
483;SDS011;228;48.922;12.198;2023-07-31T19:04:06;3.65;;;2.83;;
483;SDS011;228;48.922;12.198;2023-07-31T19:06:32;4.25;;;3.10;;
483;SDS011;228;48.922;12.198;2023-07-31T19:09:00;3.17;;;2.50;;
483;SDS011;228;48.922;12.198;2023-07-31T19:11:26;4.50;;;2.90;;
483;SDS011;228;48.922;12.198;2023-07-31T19:13:52;3.90;;;3.00;;
483;SDS011;228;48.922;12.198;2023-07-31T19:16:18;3.45;;;2.58;;
483;SDS011;228;48.922;12.198;2023-07-31T19:18:44;3.75;;;2.55;;
483;SDS011;228;48.922;12.198;2023-07-31T19:21:10;5.13;;;2.90;;
483;SDS011;228;48.922;12.198;2023-07-31T19:23:36;4.05;;;3.00;;
483;SDS011;228;48.922;12.198;2023-07-31T19:26:02;3.88;;;2.88;;
483;SDS011;228;48.922;12.198;2023-07-31T19:28:29;5.22;;;2.83;;
483;SDS011;228;48.922;12.198;2023-07-31T19:30:55;7.50;;;2.97;;
483;SDS011;228;48.922;12.198;2023-07-31T19:33:22;3.22;;;2.63;;
483;SDS011;228;48.922;12.198;2023-07-31T19:35:55;6.22;;;3.08;;
483;SDS011;228;48.922;12.198;2023-07-31T19:38:23;5.65;;;3.10;;
483;SDS011;228;48.922;12.198;2023-07-31T19:40:49;5.03;;;3.10;;
483;SDS011;228;48.922;12.198;2023-07-31T19:43:15;2.97;;;2.50;;
483;SDS011;228;48.922;12.198;2023-07-31T19:45:41;6.55;;;3.08;;